Time;durP1;ratioP1;P1;durP2;ratioP2;P2;SDS_P1;SDS_P2;PMS_P1;PMS_P2;Temp;Humidity;BMP_temperature;BMP_pressure;BME280_temperature;BME280_humidity;BME280_pressure;Samples;Min_cycle;Max_cycle;Signal;HPM_P1;HPM_P2
2022/04/20 00:01:54;;;;;;;27.27;20.10;;;25.50;99.90;;;;;;5064787;28;20036;-64
2022/04/20 00:04:22;;;;;;;20.98;18.88;;;25.50;99.90;;;;;;5075199;28;20392;-66
2022/04/20 00:06:48;;;;;;;21.50;18.42;;;25.50;99.90;;;;;;5074469;28;20492;-67
2022/04/20 00:09:15;;;;;;;20.20;17.58;;;25.50;99.90;;;;;;5072730;28;20374;-65
2022/04/20 00:11:42;;;;;;;23.52;18.75;;;25.60;99.90;;;;;;5074180;28;20075;-64
2022/04/20 00:14:08;;;;;;;23.17;17.63;;;25.60;99.90;;;;;;5064698;28;20032;-64
2022/04/20 00:16:35;;;;;;;19.70;17.60;;;25.60;99.90;;;;;;5055060;28;20032;-64
2022/04/20 00:19:02;;;;;;;17.80;16.00;;;25.60;99.90;;;;;;5054951;28;20021;-65
2022/04/20 00:21:28;;;;;;;18.95;16.95;;;25.60;99.90;;;;;;5055122;28;20158;-66
2022/04/20 00:23:55;;;;;;;23.00;17.05;;;25.70;99.90;;;;;;5054906;28;20512;-66
2022/04/20 00:26:22;;;;;;;18.08;16.25;;;25.70;99.90;;;;;;5054661;28;20048;-66
2022/04/20 00:28:49;;;;;;;22.50;18.05;;;25.80;99.90;;;;;;5062796;28;20082;-66
2022/04/20 00:31:15;;;;;;;24.77;19.58;;;25.80;99.90;;;;;;5062336;28;20485;-68
2022/04/20 00:33:42;;;;;;;21.13;18.90;;;25.80;99.90;;;;;;5073782;28;20035;-66
2022/04/20 00:36:09;;;;;;;22.92;20.55;;;25.80;99.90;;;;;;5073954;28;20036;-66
2022/04/20 00:38:36;;;;;;;22.52;20.15;;;25.80;99.90;;;;;;5064333;28;20478;-66
2022/04/20 00:41:03;;;;;;;23.08;19.58;;;25.80;99.90;;;;;;5054456;28;20075;-66
2022/04/20 00:43:29;;;;;;;20.33;17.95;;;25.90;99.90;;;;;;5054674;28;20056;-66
2022/04/20 00:45:59;;;;;;;19.35;17.42;;;25.90;99.90;;;;;;5054583;28;20523;-66
2022/04/20 00:48:27;;;;;;;20.63;18.33;;;25.90;99.90;;;;;;5054332;28;20025;-65
2022/04/20 00:50:54;;;;;;;26.10;22.58;;;26.00;99.90;;;;;;5054452;28;20055;-66
2022/04/20 00:53:20;;;;;;;28.05;23.88;;;26.00;99.90;;;;;;5067601;28;20528;-68
2022/04/20 00:55:47;;;;;;;25.83;23.15;;;26.10;99.90;;;;;;5074208;28;20027;-65
2022/04/20 00:58:13;;;;;;;29.25;24.45;;;26.10;99.90;;;;;;5073326;28;20086;-66
2022/04/20 01:00:40;;;;;;;27.27;21.98;;;26.10;99.90;;;;;;5073960;28;20115;-66
2022/04/20 01:03:07;;;;;;;23.58;21.08;;;26.10;99.90;;;;;;5062272;28;20020;-65
2022/04/20 01:05:34;;;;;;;23.85;20.52;;;26.10;99.90;;;;;;5054183;28;20493;-67
2022/04/20 01:08:00;;;;;;;23.20;20.80;;;26.20;99.90;;;;;;5061772;28;20032;-65
2022/04/20 01:10:27;;;;;;;22.77;20.42;;;26.20;99.90;;;;;;5062921;28;20046;-64
2022/04/20 01:12:54;;;;;;;25.63;22.08;;;26.20;99.90;;;;;;5063854;28;20117;-64
2022/04/20 01:15:21;;;;;;;24.52;22.02;;;26.30;99.90;;;;;;5073030;28;20033;-65
2022/04/20 01:17:48;;;;;;;25.00;22.40;;;26.40;99.90;;;;;;5064217;28;20490;-64
2022/04/20 01:20:18;;;;;;;28.08;23.33;;;26.30;99.90;;;;;;5053799;28;20033;-65
2022/04/20 01:22:44;;;;;;;29.77;23.40;;;26.30;99.90;;;;;;5053786;28;20029;-66
2022/04/20 01:25:13;;;;;;;26.60;22.35;;;26.40;99.90;;;;;;5053723;28;20112;-64
2022/04/20 01:27:43;;;;;;;32.42;25.85;;;26.40;99.90;;;;;;5053721;28;20025;-64
2022/04/20 01:30:10;;;;;;;27.95;22.27;;;26.40;99.90;;;;;;5053700;28;20021;-64
2022/04/20 01:32:37;;;;;;;25.92;22.85;;;26.50;99.90;;;;;;5057011;28;20072;-64
2022/04/20 01:35:04;;;;;;;21.70;18.30;;;26.60;99.90;;;;;;5053953;28;20052;-65
2022/04/20 01:37:31;;;;;;;20.23;15.13;;;26.60;99.90;;;;;;5063278;28;20032;-65
2022/04/20 01:39:57;;;;;;;24.20;13.30;;;26.70;99.90;;;;;;5063877;28;20036;-64
2022/04/20 01:42:24;;;;;;;17.20;13.40;;;26.70;99.90;;;;;;5053496;28;20029;-65
2022/04/20 01:44:51;;;;;;;19.80;13.57;;;26.70;99.90;;;;;;5053374;28;20448;-65
2022/04/20 01:47:18;;;;;;;20.48;14.88;;;26.80;99.90;;;;;;5053027;28;20466;-64
2022/04/20 01:49:44;;;;;;;23.92;17.20;;;26.90;99.90;;;;;;5053477;28;20017;-64
2022/04/20 01:52:11;;;;;;;19.92;17.10;;;26.90;99.90;;;;;;5071745;28;20029;-64
2022/04/20 01:54:38;;;;;;;22.95;16.58;;;27.00;99.90;;;;;;5073223;28;20031;-64
2022/04/20 01:57:05;;;;;;;20.40;15.23;;;27.00;99.90;;;;;;5073345;28;20150;-65
2022/04/20 01:59:32;;;;;;;23.58;17.17;;;27.10;99.90;;;;;;5071585;28;20028;-67
2022/04/20 02:04:45;;;;;;;21.38;18.17;;;27.10;99.90;;;;;;5053145;28;20381;-66
2022/04/20 02:07:12;;;;;;;27.63;19.80;;;27.20;99.90;;;;;;5053550;28;20017;-67
2022/04/20 02:09:38;;;;;;;25.50;20.08;;;27.20;99.90;;;;;;5069205;28;20036;-66
2022/04/20 02:12:08;;;;;;;29.27;23.58;;;27.30;99.90;;;;;;5064370;28;20059;-64
2022/04/20 02:14:35;;;;;;;29.83;22.08;;;27.30;99.90;;;;;;5069231;28;20503;-64
2022/04/20 02:17:07;;;;;;;21.75;18.88;;;27.30;99.90;;;;;;5053791;28;20044;-66
2022/04/20 02:19:34;;;;;;;26.90;18.50;;;27.40;99.90;;;;;;5068315;28;20157;-64
2022/04/20 02:22:00;;;;;;;28.85;17.02;;;27.50;99.90;;;;;;5052941;28;20056;-64
2022/04/20 02:24:27;;;;;;;18.00;14.40;;;27.50;99.90;;;;;;5059146;28;20078;-64
2022/04/20 02:26:54;;;;;;;15.40;10.27;;;27.60;99.90;;;;;;5069039;28;20025;-63
2022/04/20 02:29:20;;;;;;;12.82;9.52;;;27.60;99.90;;;;;;5072242;28;20071;-64
2022/04/20 02:31:47;;;;;;;13.93;9.57;;;27.60;99.90;;;;;;5063903;28;20107;-64
2022/04/20 02:34:14;;;;;;;12.80;9.45;;;27.70;99.90;;;;;;5058500;28;20039;-63
2022/04/20 02:36:41;;;;;;;12.10;8.50;;;27.70;99.90;;;;;;5070081;28;20500;-64
2022/04/20 02:39:08;;;;;;;15.23;7.97;;;27.70;99.90;;;;;;5069668;28;20045;-65
2022/04/20 02:41:37;;;;;;;11.40;8.68;;;27.80;99.90;;;;;;5067713;28;20080;-64
2022/04/20 02:44:07;;;;;;;17.38;9.98;;;27.80;99.90;;;;;;5071263;28;20050;-64
2022/04/20 02:46:34;;;;;;;11.40;8.38;;;27.80;99.90;;;;;;5070962;28;20089;-64
2022/04/20 02:49:01;;;;;;;10.07;8.27;;;27.90;99.90;;;;;;5069794;28;20032;-65
2022/04/20 02:51:28;;;;;;;10.00;7.38;;;27.90;99.90;;;;;;5071215;28;20047;-65
2022/04/20 02:53:54;;;;;;;9.23;6.80;;;27.90;99.90;;;;;;5071234;28;20013;-64
2022/04/20 02:56:21;;;;;;;8.65;6.30;;;27.90;99.90;;;;;;5070612;28;20017;-65
2022/04/20 02:58:48;;;;;;;9.30;6.57;;;28.00;99.90;;;;;;5071291;28;20293;-64
2022/04/20 03:01:14;;;;;;;9.23;6.35;;;28.00;99.90;;;;;;5073201;28;20047;-65
2022/04/20 03:03:42;;;;;;;7.78;6.78;;;28.00;99.90;;;;;;5074717;28;20036;-65
2022/04/20 03:06:09;;;;;;;10.65;6.30;;;28.00;99.90;;;;;;5075283;28;20155;-65
2022/04/20 03:08:35;;;;;;;9.52;5.82;;;28.00;99.90;;;;;;5073407;28;20035;-65
2022/04/20 03:11:02;;;;;;;9.10;5.35;;;28.10;99.90;;;;;;5075079;28;20017;-64
2022/04/20 03:13:29;;;;;;;6.93;5.13;;;28.10;99.90;;;;;;5075159;28;20051;-63
2022/04/20 03:15:56;;;;;;;9.32;4.70;;;28.10;99.90;;;;;;5074680;28;20064;-66
2022/04/20 03:18:22;;;;;;;11.65;5.18;;;28.20;99.90;;;;;;5074988;28;20050;-63
2022/04/20 03:20:51;;;;;;;12.32;4.50;;;28.20;99.90;;;;;;5073909;28;20040;-62
2022/04/20 03:23:17;;;;;;;6.97;3.70;;;28.20;99.90;;;;;;5073839;28;20040;-62
2022/04/20 03:25:44;;;;;;;6.20;4.03;;;28.30;99.90;;;;;;5074663;28;20032;-62
2022/04/20 03:28:11;;;;;;;9.43;4.50;;;28.30;99.90;;;;;;5073336;28;20012;-63
2022/04/20 03:30:39;;;;;;;7.00;4.80;;;28.40;99.90;;;;;;5064242;28;20078;-64
2022/04/20 03:33:08;;;;;;;6.97;5.00;;;28.40;99.90;;;;;;5069696;28;20028;-63
2022/04/20 03:35:38;;;;;;;8.05;4.70;;;28.50;99.90;;;;;;5071604;28;20063;-64
2022/04/20 03:38:06;;;;;;;7.10;4.05;;;28.50;99.90;;;;;;5073432;28;20070;-64
2022/04/20 03:40:33;;;;;;;7.47;4.30;;;28.50;99.90;;;;;;5066496;28;20538;-65
2022/04/20 03:43:00;;;;;;;6.65;4.22;;;28.50;99.90;;;;;;5074276;28;20044;-66
2022/04/20 03:45:27;;;;;;;6.63;4.60;;;28.60;99.90;;;;;;5072825;28;20021;-65
2022/04/20 03:47:53;;;;;;;7.20;4.30;;;28.60;99.90;;;;;;5074959;28;20025;-66
2022/04/20 03:50:20;;;;;;;4.95;3.70;;;28.60;99.90;;;;;;5074486;28;20017;-64
2022/04/20 03:52:47;;;;;;;6.70;3.88;;;28.70;99.90;;;;;;5072136;28;20017;-66
2022/04/20 03:55:13;;;;;;;5.57;3.28;;;28.80;99.90;;;;;;5073626;28;20021;-65
2022/04/20 03:57:40;;;;;;;4.93;3.15;;;28.80;99.90;;;;;;5068929;28;20542;-67
2022/04/20 04:00:07;;;;;;;5.97;3.90;;;28.90;99.90;;;;;;5068838;28;20481;-65
2022/04/20 04:02:34;;;;;;;4.80;3.25;;;28.90;99.90;;;;;;5073744;28;20288;-65
2022/04/20 04:05:01;;;;;;;8.32;3.40;;;28.90;99.90;;;;;;5071820;28;20102;-66
2022/04/20 04:07:28;;;;;;;5.53;3.50;;;28.90;99.90;;;;;;5073914;28;20033;-65
2022/04/20 04:09:55;;;;;;;7.53;3.22;;;29.00;99.90;;;;;;5073869;28;20024;-65
2022/04/20 04:12:24;;;;;;;6.93;3.15;;;29.20;99.90;;;;;;5071939;28;20055;-64
2022/04/20 04:14:51;;;;;;;7.05;2.97;;;29.20;99.90;;;;;;5074393;28;20483;-65
2022/04/20 04:17:18;;;;;;;3.95;2.75;;;29.20;99.90;;;;;;5071697;28;20459;-65
2022/04/20 04:19:46;;;;;;;6.57;2.40;;;29.40;99.90;;;;;;5074572;28;20024;-64
2022/04/20 04:22:12;;;;;;;3.05;2.38;;;29.40;99.90;;;;;;5071033;28;20496;-64
2022/04/20 04:24:40;;;;;;;2.78;2.00;;;29.40;99.90;;;;;;5071464;28;20492;-64
2022/04/20 04:27:10;;;;;;;5.68;2.38;;;29.40;99.90;;;;;;5071678;28;20052;-64
2022/04/20 04:29:38;;;;;;;6.30;3.10;;;29.40;99.90;;;;;;5072185;28;20051;-63
2022/04/20 04:32:05;;;;;;;5.68;3.00;;;29.40;99.90;;;;;;5072587;28;20037;-64
2022/04/20 04:34:33;;;;;;;4.30;3.30;;;29.40;99.90;;;;;;5074019;28;20032;-64
2022/04/20 04:37:00;;;;;;;8.32;3.60;;;29.40;99.90;;;;;;5070462;28;20519;-64
2022/04/20 04:39:28;;;;;;;4.13;3.05;;;29.50;99.90;;;;;;5073860;28;20435;-65
2022/04/20 04:42:00;;;;;;;6.93;3.25;;;29.50;99.90;;;;;;5069786;28;20063;-64
2022/04/20 04:44:28;;;;;;;5.13;3.15;;;29.60;99.90;;;;;;5068913;28;20024;-63
2022/04/20 04:49:41;;;;;;;5.68;3.63;;;29.60;99.90;;;;;;5071150;28;20556;-64
2022/04/20 04:52:11;;;;;;;5.22;3.58;;;29.60;99.90;;;;;;5068321;28;20040;-64
2022/04/20 04:54:40;;;;;;;3.78;3.38;;;29.70;99.90;;;;;;5071881;28;20477;-64
2022/04/20 04:57:07;;;;;;;7.22;3.83;;;29.70;99.90;;;;;;5072890;28;20028;-62
2022/04/20 04:59:38;;;;;;;6.88;3.40;;;29.90;99.90;;;;;;5072412;28;20170;-64
2022/04/20 05:02:05;;;;;;;3.47;3.17;;;29.90;99.90;;;;;;5070481;28;20032;-63
2022/04/20 05:04:32;;;;;;;4.68;3.35;;;29.90;99.90;;;;;;5071097;28;20036;-63
2022/04/20 05:06:59;;;;;;;5.55;3.58;;;30.10;99.90;;;;;;5069029;28;20033;-61
2022/04/20 05:09:25;;;;;;;5.20;3.03;;;30.20;99.90;;;;;;5068033;28;20029;-62
2022/04/20 05:11:52;;;;;;;4.72;3.90;;;30.20;99.90;;;;;;5061754;28;20035;-63
2022/04/20 05:14:19;;;;;;;7.20;3.75;;;30.40;99.90;;;;;;5060539;28;20036;-66
2022/04/20 05:16:45;;;;;;;6.68;3.78;;;30.40;99.90;;;;;;5070082;28;20444;-64
2022/04/20 05:19:13;;;;;;;4.28;3.40;;;30.60;99.90;;;;;;5070895;28;20087;-65
2022/04/20 05:21:40;;;;;;;4.90;3.20;;;30.70;99.90;;;;;;5054571;28;20025;-63
2022/04/20 05:24:06;;;;;;;5.25;3.40;;;30.80;99.90;;;;;;5054809;28;20021;-68
2022/04/20 05:26:33;;;;;;;4.18;3.17;;;30.70;99.90;;;;;;5072318;28;20111;-63
2022/04/20 05:29:00;;;;;;;6.97;2.65;;;30.70;99.90;;;;;;5069851;28;20078;-63
2022/04/20 05:31:27;;;;;;;5.35;2.97;;;30.70;99.90;;;;;;5070221;28;20563;-64
2022/04/20 05:33:54;;;;;;;4.25;2.67;;;30.80;99.90;;;;;;5073005;28;20020;-66
2022/04/20 05:36:20;;;;;;;5.53;2.63;;;30.90;99.90;;;;;;5072700;28;20105;-64
2022/04/20 05:41:42;;;;;;;3.05;2.65;;;30.70;99.90;;;;;;5070249;28;20044;-64
2022/04/20 05:44:11;;;;;;;8.25;3.17;;;30.70;99.90;;;;;;5072641;28;20489;-65
2022/04/20 05:46:39;;;;;;;4.75;2.90;;;30.60;99.90;;;;;;5068977;28;20098;-66
2022/04/20 05:49:06;;;;;;;4.30;3.17;;;30.70;99.90;;;;;;5072819;28;20038;-66
2022/04/20 05:51:32;;;;;;;7.05;3.40;;;30.60;99.90;;;;;;5067564;28;20060;-66
2022/04/20 05:53:59;;;;;;;3.58;3.13;;;30.60;99.90;;;;;;5054234;28;20092;-65
2022/04/20 05:56:26;;;;;;;3.55;3.00;;;30.60;99.90;;;;;;5064082;28;20381;-65
2022/04/20 05:58:53;;;;;;;3.50;3.20;;;30.70;99.90;;;;;;5070050;28;20021;-65
2022/04/20 06:01:22;;;;;;;5.85;3.92;;;30.70;99.90;;;;;;5072638;28;20028;-66
2022/04/20 06:03:49;;;;;;;7.45;4.03;;;30.70;99.90;;;;;;5073061;28;20070;-66
2022/04/20 06:06:16;;;;;;;7.32;4.30;;;30.80;99.90;;;;;;5072790;28;20040;-66
2022/04/20 06:08:43;;;;;;;7.20;4.32;;;30.80;99.90;;;;;;5072894;28;20477;-65
2022/04/20 06:11:11;;;;;;;5.40;3.88;;;30.80;99.90;;;;;;5064318;28;20470;-65
2022/04/20 06:13:38;;;;;;;4.35;3.95;;;30.90;99.90;;;;;;5067280;28;20060;-67
2022/04/20 06:16:06;;;;;;;6.32;3.80;;;31.00;99.90;;;;;;5058024;28;20032;-63
2022/04/20 06:18:34;;;;;;;6.03;4.05;;;31.20;99.90;;;;;;5073453;28;20389;-65
2022/04/20 06:21:01;;;;;;;7.10;4.40;;;31.20;99.90;;;;;;5072675;28;20469;-65
2022/04/20 06:23:28;;;;;;;6.82;4.95;;;31.30;99.90;;;;;;5073606;28;20413;-65
2022/04/20 06:25:55;;;;;;;12.07;7.53;;;31.30;99.90;;;;;;5064235;28;20469;-64
2022/04/20 06:28:25;;;;;;;9.05;5.70;;;31.20;99.90;;;;;;5073082;28;20040;-65
2022/04/20 06:30:52;;;;;;;8.48;5.45;;;31.10;99.90;;;;;;5073033;28;20017;-65
2022/04/20 06:33:21;;;;;;;7.63;5.20;;;31.20;99.90;;;;;;5067570;28;20029;-65
2022/04/20 06:35:48;;;;;;;8.60;5.25;;;31.30;99.90;;;;;;5064389;28;20033;-65
2022/04/20 06:38:16;;;;;;;7.75;6.15;;;31.40;99.90;;;;;;5074728;28;20043;-64
2022/04/20 06:40:43;;;;;;;8.52;5.32;;;31.30;99.90;;;;;;5076777;28;20051;-64
2022/04/20 06:43:10;;;;;;;7.20;4.95;;;31.20;99.90;;;;;;5076802;28;20081;-65
2022/04/20 06:45:37;;;;;;;6.68;4.57;;;31.30;99.90;;;;;;5072995;28;20032;-65
2022/04/20 06:48:04;;;;;;;9.38;5.63;;;31.30;99.90;;;;;;5074396;28;20129;-65
2022/04/20 06:50:30;;;;;;;7.32;5.55;;;31.30;99.90;;;;;;5074987;28;20032;-65
2022/04/20 06:58:32;;;;;;;14.05;9.48;;;31.30;99.90;;;;;;5061527;28;20033;-65
2022/04/20 07:01:00;;;;;;;11.75;7.80;;;31.40;99.90;;;;;;5077395;28;20036;-64
2022/04/20 07:03:26;;;;;;;10.60;6.05;;;31.40;99.90;;;;;;5077083;28;20024;-65
2022/04/20 07:05:53;;;;;;;10.02;6.40;;;31.50;99.90;;;;;;5076985;28;20017;-65
2022/04/20 07:08:22;;;;;;;10.63;6.63;;;31.40;99.90;;;;;;5076236;28;20102;-64
2022/04/20 07:10:49;;;;;;;13.23;7.13;;;31.50;99.90;;;;;;5073969;28;20028;-66
2022/04/20 07:13:16;;;;;;;9.75;6.55;;;31.40;99.90;;;;;;5074968;28;20040;-65
2022/04/20 07:15:44;;;;;;;11.25;7.00;;;31.40;99.90;;;;;;5075298;28;20120;-65
2022/04/20 07:18:12;;;;;;;12.43;7.63;;;31.40;99.90;;;;;;5075194;28;20480;-64
2022/04/20 07:20:39;;;;;;;17.30;10.63;;;31.50;99.90;;;;;;5076066;28;20043;-65
2022/04/20 07:23:06;;;;;;;12.27;6.85;;;31.50;99.90;;;;;;5076572;28;20025;-65
2022/04/20 07:25:33;;;;;;;14.63;7.82;;;31.50;99.90;;;;;;5074050;28;20024;-64
2022/04/20 07:28:00;;;;;;;12.43;5.75;;;31.50;99.90;;;;;;5064928;28;20029;-65
2022/04/20 07:30:26;;;;;;;9.13;5.97;;;31.50;99.90;;;;;;5066531;28;20032;-65
2022/04/20 07:32:53;;;;;;;11.25;6.95;;;31.50;99.90;;;;;;5062547;28;20028;-65
2022/04/20 07:35:20;;;;;;;11.25;6.22;;;31.50;99.90;;;;;;5076001;28;20037;-65
2022/04/20 07:37:47;;;;;;;6.40;5.10;;;31.40;99.90;;;;;;5067632;28;20029;-65
2022/04/20 07:40:14;;;;;;;7.97;5.53;;;31.40;99.90;;;;;;5067160;28;20101;-65
2022/04/20 07:42:41;;;;;;;8.50;5.60;;;31.40;99.90;;;;;;5075164;28;20449;-64
2022/04/20 07:45:09;;;;;;;10.32;6.28;;;31.30;99.90;;;;;;5070541;28;20081;-64
2022/04/20 07:47:36;;;;;;;9.38;5.78;;;31.30;99.90;;;;;;5070592;28;20370;-64
2022/04/20 07:52:42;;;;;;;9.50;7.25;;;31.40;99.90;;;;;;5058006;28;20058;-64
2022/04/20 07:55:10;;;;;;;9.38;6.70;;;31.40;99.90;;;;;;5061783;28;20029;-67
2022/04/20 07:57:38;;;;;;;6.97;5.90;;;31.40;99.90;;;;;;5075172;28;20029;-64
2022/04/20 08:00:06;;;;;;;19.05;6.30;;;31.40;99.80;;;;;;5071893;28;20060;-63
2022/04/20 08:02:33;;;;;;;11.23;6.80;;;31.30;99.80;;;;;;5073994;28;20080;-63
2022/04/20 08:04:59;;;;;;;10.98;7.50;;;31.30;99.90;;;;;;5073608;28;20028;-65
2022/04/20 08:07:26;;;;;;;12.93;9.70;;;31.20;99.90;;;;;;5073110;28;20012;-64
2022/04/20 08:09:53;;;;;;;16.55;9.80;;;31.30;99.90;;;;;;5073944;28;20104;-65
2022/04/20 08:12:20;;;;;;;16.70;9.38;;;31.30;99.90;;;;;;5069585;28;20064;-65
2022/04/20 08:14:47;;;;;;;11.70;8.15;;;31.30;99.90;;;;;;5071681;28;20489;-63
2022/04/20 08:17:13;;;;;;;12.95;8.25;;;31.30;99.70;;;;;;5070499;28;20093;-65
2022/04/20 08:19:40;;;;;;;15.13;8.05;;;31.30;99.90;;;;;;5072969;28;20032;-65
2022/04/20 08:22:06;;;;;;;21.60;8.00;;;31.30;99.90;;;;;;5069656;28;20033;-65
2022/04/20 08:24:33;;;;;;;10.15;8.13;;;31.30;99.90;;;;;;5070960;28;20024;-66
2022/04/20 08:27:00;;;;;;;11.00;7.30;;;31.30;99.90;;;;;;5068647;28;20038;-67
2022/04/20 08:29:26;;;;;;;8.80;7.32;;;31.30;98.50;;;;;;5074410;28;20180;-65
2022/04/20 08:31:53;;;;;;;13.07;8.02;;;31.30;99.90;;;;;;5073057;28;20056;-64
2022/04/20 08:34:20;;;;;;;10.63;8.55;;;31.30;99.90;;;;;;5074500;28;20047;-67
2022/04/20 08:36:46;;;;;;;14.57;9.63;;;31.30;99.50;;;;;;5072468;28;20032;-66
2022/04/20 08:39:13;;;;;;;12.02;7.85;;;31.30;99.40;;;;;;5071542;28;20028;-66
2022/04/20 08:41:41;;;;;;;12.00;8.13;;;31.30;99.60;;;;;;5069600;28;20397;-66
2022/04/20 08:44:14;;;;;;;11.82;9.57;;;31.30;99.80;;;;;;5075044;28;20033;-65
2022/04/20 08:46:41;;;;;;;10.70;9.07;;;31.30;99.90;;;;;;5074632;28;20031;-65
2022/04/20 08:49:09;;;;;;;18.73;9.82;;;31.40;99.90;;;;;;5074925;28;20078;-66
2022/04/20 08:54:23;;;;;;;13.48;9.70;;;31.50;99.90;;;;;;5075226;28;20032;-65
2022/04/20 08:59:37;;;;;;;12.07;9.23;;;31.40;99.10;;;;;;5066727;28;20082;-66
2022/04/20 09:02:04;;;;;;;13.88;8.32;;;31.40;98.40;;;;;;5070420;28;20024;-68
2022/04/20 09:04:31;;;;;;;12.20;9.30;;;31.50;99.50;;;;;;5074364;28;20055;-68
2022/04/20 09:06:57;;;;;;;14.90;9.85;;;31.50;99.20;;;;;;5074021;28;20032;-65
2022/04/20 09:09:29;;;;;;;11.80;8.52;;;31.40;99.90;;;;;;5071015;28;20205;-68
2022/04/20 09:11:59;;;;;;;17.15;9.98;;;31.40;99.00;;;;;;5054630;28;20469;-65
2022/04/20 09:14:29;;;;;;;20.73;9.80;;;31.30;99.90;;;;;;5059291;28;20074;-65
2022/04/20 09:16:56;;;;;;;14.20;9.57;;;31.30;99.30;;;;;;5074569;28;20035;-65
2022/04/20 09:19:28;;;;;;;11.57;9.05;;;31.30;99.90;;;;;;5073733;28;20021;-66
2022/04/20 09:21:55;;;;;;;21.90;10.38;;;31.20;99.10;;;;;;5073812;28;20033;-66
2022/04/20 09:24:23;;;;;;;12.68;9.25;;;31.20;99.70;;;;;;5074357;28;20028;-67
2022/04/20 09:26:53;;;;;;;12.90;8.90;;;31.20;98.90;;;;;;5074313;28;20465;-67
2022/04/20 09:29:21;;;;;;;16.00;9.52;;;31.10;99.70;;;;;;5073872;28;20194;-66
2022/04/20 09:31:50;;;;;;;17.77;11.02;;;31.10;99.90;;;;;;5073297;28;20066;-67
2022/04/20 09:34:26;;;;;;;16.95;10.25;;;31.20;99.00;;;;;;5068928;28;20028;-67
2022/04/20 09:36:54;;;;;;;16.23;10.07;;;31.10;98.80;;;;;;5074532;28;20040;-67
2022/04/20 09:39:22;;;;;;;13.88;10.07;;;31.10;99.10;;;;;;5073536;28;20090;-67
2022/04/20 09:41:58;;;;;;;15.70;10.70;;;31.10;99.00;;;;;;5063530;28;20525;-67
2022/04/20 09:44:26;;;;;;;12.80;9.90;;;31.00;99.90;;;;;;5062925;28;20031;-65
2022/04/20 09:50:02;;;;;;;18.05;11.80;;;31.00;99.90;;;;;;5071487;28;20050;-65
2022/04/20 09:52:40;;;;;;;20.52;14.10;;;31.00;99.90;;;;;;5073026;28;20055;-66
2022/04/20 09:55:11;;;;;;;19.42;13.63;;;30.90;99.90;;;;;;5071485;28;20285;-66
2022/04/20 09:57:37;;;;;;;26.45;14.38;;;30.90;99.90;;;;;;5061751;28;20036;-66
2022/04/20 10:00:09;;;;;;;21.75;13.98;;;30.90;99.90;;;;;;5084944;22;20072;-68
2022/04/20 10:02:44;;;;;;;22.83;13.50;;;30.80;99.90;;;;;;5073439;28;20032;-68
2022/04/20 10:05:11;;;;;;;17.98;13.50;;;30.70;99.90;;;;;;5070169;28;20403;-68
2022/04/20 10:07:37;;;;;;;17.10;12.30;;;30.70;99.90;;;;;;5073706;28;20017;-68
2022/04/20 10:10:04;;;;;;;20.15;12.43;;;30.70;99.90;;;;;;5074219;28;20063;-68
2022/04/20 10:12:32;;;;;;;17.00;12.48;;;30.70;99.90;;;;;;5074070;28;20028;-69
2022/04/20 10:17:53;;;;;;;15.23;12.95;;;30.70;99.90;;;;;;5071454;28;20033;-66
2022/04/20 10:20:22;;;;;;;16.13;12.88;;;30.70;99.90;;;;;;5073796;28;20036;-66
2022/04/20 10:22:51;;;;;;;19.65;13.50;;;30.70;99.90;;;;;;5085056;22;20049;-66
2022/04/20 10:25:17;;;;;;;22.00;14.02;;;30.60;99.90;;;;;;5071689;28;20021;-66
2022/04/20 10:27:59;;;;;;;19.63;13.55;;;30.60;99.90;;;;;;5072088;28;20017;-65
2022/04/20 10:30:38;;;;;;;38.63;15.15;;;30.60;99.90;;;;;;5073584;28;20025;-67
2022/04/20 10:33:23;;;;;;;33.13;17.55;;;30.60;99.90;;;;;;5073605;28;20111;-66
2022/04/20 10:36:15;;;;;;;23.10;16.33;;;30.60;99.90;;;;;;5072758;28;20400;-67
2022/04/20 10:38:45;;;;;;;21.10;15.02;;;30.60;99.90;;;;;;5063738;28;20079;-66
2022/04/20 10:41:18;;;;;;;27.20;16.70;;;30.50;99.90;;;;;;5073514;28;20435;-66
2022/04/20 10:43:45;;;;;;;23.23;16.98;;;30.50;99.90;;;;;;5073709;28;20032;-67
2022/04/20 10:46:21;;;;;;;29.90;20.48;;;30.50;99.90;;;;;;5072036;28;20070;-66
2022/04/20 10:48:52;;;;;;;38.10;21.67;;;30.40;99.90;;;;;;5073601;28;20524;-65
2022/04/20 10:51:24;;;;;;;124.17;37.10;;;30.40;99.90;;;;;;5068926;28;20033;-66
2022/04/20 10:53:51;;;;;;;;;;;30.40;99.90;;;;;;5064841;28;20028;-67
2022/04/20 10:56:20;;;;;;;40.28;24.75;;;30.30;99.90;;;;;;5062194;28;19908;-66
2022/04/20 10:59:08;;;;;;;36.75;22.67;;;30.30;99.90;;;;;;5072389;28;20028;-65
2022/04/20 11:02:03;;;;;;;34.33;19.75;;;30.30;99.90;;;;;;5061027;28;20024;-66
2022/04/20 11:04:50;;;;;;;36.80;22.38;;;30.20;99.90;;;;;;5072358;28;20555;-67
2022/04/20 11:07:20;;;;;;;35.15;22.10;;;30.20;99.90;;;;;;5073281;28;20240;-65
2022/04/20 11:09:49;;;;;;;40.33;19.98;;;30.20;99.90;;;;;;5071718;28;20055;-66
2022/04/20 11:18:39;;;;;;;35.92;25.95;;;30.10;99.90;;;;;;5073247;28;20029;-64
2022/04/20 11:21:07;;;;;;;39.28;27.10;;;30.10;99.90;;;;;;5075818;28;20312;-63
2022/04/20 11:24:06;;;;;;;37.55;27.05;;;30.10;99.90;;;;;;5074718;28;20272;-65
2022/04/20 11:26:37;;;;;;;43.20;28.42;;;30.10;99.90;;;;;;5076842;28;20021;-62
2022/04/20 11:29:14;;;;;;;41.65;27.73;;;30.00;99.90;;;;;;5076715;28;20032;-64
2022/04/20 11:32:03;;;;;;;39.95;25.90;;;30.00;99.90;;;;;;5076033;28;20063;-65
2022/04/20 11:34:33;;;;;;;45.20;28.15;;;29.90;99.90;;;;;;5073713;28;20439;-64
2022/04/20 11:37:04;;;;;;;39.42;30.27;;;29.90;99.90;;;;;;5076690;28;20024;-66
2022/04/20 11:39:31;;;;;;;60.08;38.58;;;29.90;99.90;;;;;;5074080;28;20505;-65
2022/04/20 11:42:02;;;;;;;71.55;45.60;;;29.80;99.90;;;;;;5072966;28;20032;-65
2022/04/20 11:44:31;;;;;;;83.07;49.88;;;29.80;99.90;;;;;;5075002;28;20024;-64
2022/04/20 11:47:02;;;;;;;71.90;44.67;;;29.90;99.90;;;;;;5076320;28;20028;-65
2022/04/20 11:49:34;;;;;;;67.22;44.50;;;29.90;99.90;;;;;;5075629;28;20223;-63
2022/04/20 11:52:03;;;;;;;70.53;46.92;;;29.90;99.90;;;;;;5075551;28;20393;-64
2022/04/20 11:54:29;;;;;;;68.68;41.97;;;29.90;99.90;;;;;;5074207;28;20039;-62
2022/04/20 11:56:56;;;;;;;65.78;39.85;;;29.90;99.90;;;;;;5069280;28;20496;-64
2022/04/20 11:59:24;;;;;;;61.80;42.00;;;29.80;99.90;;;;;;5076038;28;20440;-67
2022/04/20 12:01:52;;;;;;;62.97;40.25;;;29.90;99.90;;;;;;5074507;28;20040;-65
2022/04/20 12:04:21;;;;;;;63.70;45.35;;;29.80;99.90;;;;;;5075875;28;20024;-67
2022/04/20 12:06:53;;;;;;;65.72;42.60;;;29.90;99.90;;;;;;5075498;28;20412;-65
2022/04/20 12:09:24;;;;;;;68.13;40.90;;;29.90;99.90;;;;;;5074534;28;20068;-66
2022/04/20 12:11:54;;;;;;;62.55;40.25;;;29.90;99.90;;;;;;5071221;28;20285;-67
2022/04/20 12:14:24;;;;;;;70.07;41.83;;;29.90;99.90;;;;;;5067560;28;20031;-65
2022/04/20 12:16:52;;;;;;;77.95;46.03;;;29.90;99.90;;;;;;5075018;28;20028;-65
2022/04/20 12:19:19;;;;;;;78.28;46.90;;;29.80;99.90;;;;;;5074533;28;20082;-66
2022/04/20 12:21:48;;;;;;;86.63;50.35;;;29.70;99.90;;;;;;5073871;28;20067;-65
2022/04/20 12:24:19;;;;;;;76.15;49.10;;;29.70;99.90;;;;;;5075296;28;20104;-67
2022/04/20 12:26:47;;;;;;;79.88;50.55;;;29.80;99.90;;;;;;5075606;28;20021;-66
2022/04/20 12:29:14;;;;;;;78.38;50.00;;;29.80;99.90;;;;;;5075745;28;20051;-68
2022/04/20 12:31:43;;;;;;;74.63;51.65;;;29.70;99.90;;;;;;5075719;28;20021;-65
2022/04/20 12:34:13;;;;;;;81.95;48.90;;;29.80;99.90;;;;;;5073820;28;20104;-68
2022/04/20 12:36:59;;;;;;;77.47;45.92;;;29.80;99.90;;;;;;5075285;28;20032;-66
2022/04/20 12:39:27;;;;;;;75.97;44.75;;;29.70;99.90;;;;;;5073090;28;20111;-65
2022/04/20 12:41:58;;;;;;;69.00;41.78;;;29.70;99.90;;;;;;5070397;28;20381;-65
2022/04/20 12:44:35;;;;;;;61.75;40.42;;;29.60;99.90;;;;;;5075419;28;20063;-65
2022/04/20 12:47:21;;;;;;;74.78;42.88;;;29.60;99.90;;;;;;5075155;28;20031;-65
2022/04/20 12:50:07;;;;;;;62.92;42.13;;;29.60;99.90;;;;;;5069834;28;20048;-65
2022/04/20 12:52:35;;;;;;;62.88;41.72;;;29.50;99.90;;;;;;5063743;28;20020;-65
2022/04/20 12:55:13;;;;;;;72.68;46.55;;;29.50;99.90;;;;;;5067171;28;20035;-64
2022/04/20 13:03:36;;;;;;;85.85;60.05;;;29.50;99.90;;;;;;5076296;28;20497;-65
2022/04/20 13:06:06;;;;;;;77.18;55.33;;;29.50;99.90;;;;;;5075710;28;20020;-63
2022/04/20 13:08:33;;;;;;;76.07;54.08;;;29.60;99.90;;;;;;5070407;28;20032;-64
2022/04/20 13:10:59;;;;;;;70.68;49.30;;;29.50;99.90;;;;;;5076356;28;20499;-62
2022/04/20 13:13:27;;;;;;;70.40;46.92;;;29.50;99.90;;;;;;5075219;28;20473;-64
2022/04/20 13:15:55;;;;;;;70.95;47.17;;;29.50;99.90;;;;;;5073540;28;20107;-62
2022/04/20 13:18:22;;;;;;;70.30;49.63;;;29.40;99.90;;;;;;5074062;28;20033;-63
2022/04/20 13:20:49;;;;;;;77.68;56.47;;;29.40;99.90;;;;;;5074068;28;20024;-63
2022/04/20 13:23:16;;;;;;;66.30;45.67;;;29.50;99.90;;;;;;5073559;28;20048;-66